createdAt,value
2022-12-14T00:00:32.786Z,4.90
2022-12-14T00:05:38.473Z,1.58
2022-12-14T00:10:43.005Z,3.75
2022-12-14T00:15:46.979Z,2.22
2022-12-14T00:20:52.662Z,4.55
2022-12-14T00:25:57.179Z,4.10
2022-12-14T00:31:01.343Z,4.07
2022-12-14T00:36:08.967Z,2.30
2022-12-14T00:41:13.716Z,3.22
2022-12-14T00:46:18.446Z,3.22
2022-12-14T00:51:23.944Z,3.20
2022-12-14T00:56:27.987Z,3.15
2022-12-14T01:01:32.136Z,4.15
2022-12-14T01:06:37.517Z,4.18
2022-12-14T01:11:42.300Z,2.28
2022-12-14T01:16:46.491Z,3.97
2022-12-14T01:21:53.549Z,3.03
2022-12-14T01:26:57.776Z,1.65
2022-12-14T01:32:01.792Z,2.97
2022-12-14T01:37:07.497Z,2.65
2022-12-14T01:42:13.052Z,2.33
2022-12-14T01:47:22.281Z,2.03
2022-12-14T01:52:33.122Z,2.90
2022-12-14T01:57:41.573Z,2.30
2022-12-14T02:02:53.756Z,3.15
2022-12-14T02:07:59.908Z,11.70
2022-12-14T02:13:11.480Z,4.18
2022-12-14T02:18:20.552Z,1.88
2022-12-14T02:23:48.679Z,1.95
2022-12-14T02:29:40.340Z,2.00
2022-12-14T02:34:58.245Z,2.25
2022-12-14T02:40:13.758Z,3.67
2022-12-14T02:45:25.543Z,2.50
2022-12-14T02:50:41.360Z,2.00
2022-12-14T02:55:48.838Z,1.42
2022-12-14T03:00:54.802Z,2.70
2022-12-14T03:06:03.049Z,3.80
2022-12-14T03:11:08.370Z,5.30
2022-12-14T03:16:16.695Z,2.92
2022-12-14T03:21:26.011Z,2.17
2022-12-14T03:26:34.282Z,2.15
2022-12-14T03:31:43.949Z,2.88
2022-12-14T03:37:01.158Z,1.90
2022-12-14T03:42:16.676Z,1.60
2022-12-14T03:47:35.550Z,0.80
2022-12-14T03:52:48.326Z,2.22
2022-12-14T03:58:07.001Z,2.22
2022-12-14T04:03:19.715Z,1.88
2022-12-14T04:08:30.189Z,3.40
2022-12-14T04:13:56.935Z,3.17
2022-12-14T04:19:07.678Z,2.28
2022-12-14T04:24:36.679Z,5.35
2022-12-14T04:29:59.326Z,3.17
2022-12-14T04:35:10.872Z,2.67
2022-12-14T04:40:20.483Z,1.77
2022-12-14T04:45:29.238Z,1.80
2022-12-14T04:50:38.700Z,2.33
2022-12-14T04:55:50.857Z,2.78
2022-12-14T05:01:18.550Z,1.73
2022-12-14T05:06:28.065Z,2.10
2022-12-14T05:11:56.667Z,2.38
2022-12-14T05:17:06.504Z,0.73
2022-12-14T05:22:12.754Z,2.42
2022-12-14T05:27:18.202Z,2.15
2022-12-14T05:32:22.164Z,1.80
2022-12-14T05:37:26.227Z,1.95
2022-12-14T05:42:31.899Z,1.85
2022-12-14T05:47:37.083Z,2.35
2022-12-14T05:52:41.085Z,2.67
2022-12-14T05:57:46.585Z,2.63
2022-12-14T06:02:50.698Z,6.97
2022-12-14T06:07:55.609Z,6.47
2022-12-14T06:13:01.064Z,3.55
2022-12-14T06:18:05.764Z,1.52
2022-12-14T06:23:10.453Z,2.13
2022-12-14T06:28:15.932Z,8.05
2022-12-14T06:33:22.957Z,4.03
2022-12-14T06:38:28.599Z,4.20
2022-12-14T06:43:34.025Z,3.95
2022-12-14T06:48:39.565Z,3.75
2022-12-14T06:53:43.600Z,1.70
2022-12-14T06:58:50.290Z,2.00
2022-12-14T07:03:55.895Z,1.52
2022-12-14T07:09:00.909Z,3.45
2022-12-14T07:14:07.398Z,3.22
2022-12-14T07:19:12.084Z,3.10
2022-12-14T07:24:17.742Z,2.58
2022-12-14T07:29:23.306Z,1.52
2022-12-14T07:34:27.626Z,2.38
2022-12-14T07:39:32.136Z,1.80
2022-12-14T07:44:37.656Z,1.58
2022-12-14T07:49:41.713Z,2.17
2022-12-14T07:54:45.784Z,2.05
2022-12-14T07:59:57.113Z,1.67
2022-12-14T08:05:01.777Z,3.60
2022-12-14T08:10:06.437Z,1.55
2022-12-14T08:15:12.201Z,6.45
2022-12-14T08:20:16.202Z,4.47
2022-12-14T08:25:20.070Z,2.58
2022-12-14T08:30:25.427Z,2.75
2022-12-14T08:35:29.360Z,3.47
2022-12-14T08:40:36.278Z,3.20
2022-12-14T08:45:41.671Z,1.73
2022-12-14T08:50:45.528Z,3.53
2022-12-14T08:55:53.969Z,1.42
2022-12-14T09:01:04.564Z,1.58
2022-12-14T09:06:10.671Z,3.28
2022-12-14T09:11:16.337Z,2.22
2022-12-14T09:16:23.489Z,3.05
2022-12-14T09:26:31.205Z,0.77
2022-12-14T09:31:36.582Z,2.42
2022-12-14T09:36:40.566Z,3.08
2022-12-14T09:42:03.624Z,3.58
2022-12-14T09:47:15.225Z,3.60
2022-12-14T09:52:23.944Z,3.97
2022-12-14T09:57:31.707Z,3.63
2022-12-14T10:02:50.546Z,4.40
2022-12-14T10:08:04.360Z,3.50
2022-12-14T10:13:21.202Z,5.18
2022-12-14T10:18:59.419Z,1.75
2022-12-14T10:24:07.428Z,2.15
2022-12-14T10:29:15.736Z,1.70
2022-12-14T10:34:22.927Z,2.50
2022-12-14T10:44:50.112Z,1.50
2022-12-14T10:50:04.590Z,9.13
2022-12-14T10:55:16.951Z,3.75
2022-12-14T11:00:24.114Z,5.88
2022-12-14T11:05:37.534Z,4.55
2022-12-14T11:10:41.544Z,3.88
2022-12-14T11:15:48.048Z,3.00
2022-12-14T11:20:56.474Z,3.50
2022-12-14T11:26:02.361Z,4.07
2022-12-14T11:31:09.855Z,1.67
2022-12-14T11:36:27.108Z,4.07
2022-12-14T11:41:35.095Z,3.03
2022-12-14T11:46:47.337Z,6.47
2022-12-14T11:52:03.110Z,4.43
2022-12-14T11:57:10.269Z,5.07
2022-12-14T12:02:20.624Z,2.78
2022-12-14T12:07:32.293Z,4.32
2022-12-14T12:12:36.722Z,2.47
2022-12-14T12:17:44.201Z,2.75
2022-12-14T12:22:53.341Z,5.65
2022-12-14T12:28:07.080Z,6.50
2022-12-14T12:33:29.190Z,9.60
2022-12-14T12:38:57.060Z,6.05
2022-12-14T12:44:07.790Z,7.05
2022-12-14T12:49:14.956Z,3.92
2022-12-14T12:54:25.710Z,5.75
2022-12-14T12:59:37.617Z,4.43
2022-12-14T13:04:43.220Z,5.43
2022-12-14T13:10:03.430Z,4.63
2022-12-14T13:15:19.537Z,3.72
2022-12-14T13:20:27.267Z,5.28
2022-12-14T13:25:42.168Z,4.22
2022-12-14T13:31:15.204Z,2.00
2022-12-14T13:36:52.016Z,3.65
2022-12-14T13:42:05.176Z,2.05
2022-12-14T13:47:17.353Z,1.90
2022-12-14T13:52:34.331Z,5.10
2022-12-14T13:57:40.080Z,3.00
2022-12-14T14:02:54.418Z,3.03
2022-12-14T14:08:01.773Z,3.67
2022-12-14T14:18:38.505Z,3.70
2022-12-14T14:23:56.178Z,4.70
2022-12-14T14:29:25.083Z,3.70
2022-12-14T14:34:49.579Z,5.13
2022-12-14T14:40:38.225Z,5.53
2022-12-14T14:45:52.977Z,3.85
2022-12-14T14:51:07.769Z,3.80
2022-12-14T14:56:40.127Z,8.98
2022-12-14T15:01:47.943Z,9.52
2022-12-14T15:06:55.600Z,12.60
2022-12-14T15:12:08.004Z,11.23
2022-12-14T15:17:22.759Z,7.38
2022-12-14T15:22:29.875Z,18.45
2022-12-14T15:32:47.693Z,6.40
2022-12-14T15:38:00.278Z,8.95
2022-12-14T15:43:18.620Z,12.82
2022-12-14T15:48:26.243Z,14.27
2022-12-14T15:53:33.117Z,11.07
2022-12-14T16:08:57.855Z,3.45
2022-12-14T16:14:04.133Z,4.78
2022-12-14T16:19:26.615Z,9.77
2022-12-14T16:24:31.673Z,13.07
2022-12-14T16:29:35.918Z,13.07
2022-12-14T16:34:46.712Z,16.63
2022-12-14T16:39:51.061Z,13.25
2022-12-14T16:44:55.631Z,6.32
2022-12-14T16:50:01.194Z,6.40
2022-12-14T16:55:11.970Z,12.45
2022-12-14T17:00:23.170Z,5.75
2022-12-14T17:05:34.260Z,7.18
2022-12-14T17:10:39.328Z,6.38
2022-12-14T17:15:56.497Z,4.97
2022-12-14T17:21:02.800Z,4.32
2022-12-14T17:26:06.745Z,4.95
2022-12-14T17:31:12.452Z,11.80
2022-12-14T17:36:18.001Z,27.17
2022-12-14T17:41:26.019Z,16.52
2022-12-14T17:46:30.014Z,8.52
2022-12-14T17:51:42.178Z,11.23
2022-12-14T17:56:46.984Z,7.43
2022-12-14T18:01:51.250Z,8.82
2022-12-14T18:06:56.768Z,7.18
2022-12-14T18:12:22.715Z,8.65
2022-12-14T18:17:25.226Z,5.35
2022-12-14T18:22:30.688Z,7.30
2022-12-14T18:27:34.675Z,6.07
2022-12-14T18:32:38.691Z,6.13
2022-12-14T18:37:44.004Z,4.20
2022-12-14T18:42:53.737Z,4.07
2022-12-14T18:47:59.110Z,4.05
2022-12-14T18:53:04.833Z,4.85
2022-12-14T18:58:09.154Z,7.82
2022-12-14T19:03:15.520Z,6.78
2022-12-14T19:08:21.469Z,6.30
2022-12-14T19:13:26.487Z,5.90
2022-12-14T19:18:31.110Z,4.80
2022-12-14T19:23:39.313Z,5.00
2022-12-14T19:28:44.823Z,4.82
2022-12-14T19:33:49.635Z,4.88
2022-12-14T19:38:55.718Z,5.72
2022-12-14T19:44:00.464Z,5.85
2022-12-14T19:49:05.086Z,8.55
2022-12-14T19:54:12.093Z,19.42
2022-12-14T19:59:16.669Z,7.07
2022-12-14T20:04:21.241Z,8.93
2022-12-14T20:09:27.026Z,6.97
2022-12-14T20:14:31.816Z,5.85
2022-12-14T20:19:36.202Z,4.78
2022-12-14T20:24:42.247Z,5.00
2022-12-14T20:29:46.717Z,7.72
2022-12-14T20:34:50.788Z,7.57
2022-12-14T20:39:56.462Z,4.45
2022-12-14T20:45:06.671Z,8.23
2022-12-14T20:50:11.105Z,7.90
2022-12-14T20:55:16.806Z,5.95
2022-12-14T21:00:21.238Z,5.28
2022-12-14T21:05:25.317Z,3.53
2022-12-14T21:10:31.183Z,3.90
2022-12-14T21:15:36.611Z,5.72
2022-12-14T21:20:40.990Z,5.60
2022-12-14T21:25:46.691Z,3.95
2022-12-14T21:30:50.702Z,2.22
2022-12-14T21:35:54.935Z,4.03
2022-12-14T21:41:18.041Z,2.65
2022-12-14T21:46:24.524Z,3.28
2022-12-14T21:51:32.261Z,1.45
2022-12-14T21:56:57.005Z,3.03
2022-12-14T22:02:03.260Z,3.42
2022-12-14T22:07:07.841Z,6.63
2022-12-14T22:12:14.144Z,3.70
2022-12-14T22:17:18.343Z,1.23
2022-12-14T22:22:22.790Z,1.50
2022-12-14T22:27:28.836Z,1.13
2022-12-14T22:32:33.209Z,1.63
2022-12-14T22:37:37.237Z,0.70
2022-12-14T22:42:42.808Z,1.38
2022-12-14T22:47:46.782Z,1.48
2022-12-14T22:52:50.933Z,1.23
2022-12-14T22:57:56.661Z,2.65
2022-12-14T23:03:01.022Z,2.03
2022-12-14T23:08:06.288Z,3.90
2022-12-14T23:13:29.319Z,3.10
2022-12-14T23:18:50.923Z,4.07
2022-12-14T23:24:12.543Z,6.63
2022-12-14T23:29:35.578Z,2.30
2022-12-14T23:34:57.083Z,11.55
2022-12-14T23:40:18.261Z,6.88
2022-12-14T23:45:41.202Z,4.50
2022-12-14T23:51:03.357Z,1.27
2022-12-14T23:56:25.028Z,2.42
